sensor_id;sensor_type;location;lat;lon;timestamp;pressure;altitude;pressure_sealevel;temperature;humidity
38022;BME280;23832;43.216;27.946;2023-04-16T00:00:01;100642.03;;;17.01;100.00
38022;BME280;23832;43.216;27.946;2023-04-16T00:02:04;100646.06;;;17.10;100.00
38022;BME280;23832;43.216;27.946;2023-04-16T00:04:07;100642.03;;;17.01;100.00
38022;BME280;23832;43.216;27.946;2023-04-16T00:06:09;100648.34;;;16.75;100.00
38022;BME280;23832;43.216;27.946;2023-04-16T00:08:11;100646.81;;;16.92;100.00
38022;BME280;23832;43.216;27.946;2023-04-16T00:10:15;100637.97;;;16.98;100.00
38022;BME280;23832;43.216;27.946;2023-04-16T00:12:17;100635.84;;;17.07;100.00
38022;BME280;23832;43.216;27.946;2023-04-16T00:14:19;100638.13;;;17.03;100.00
38022;BME280;23832;43.216;27.946;2023-04-16T00:16:21;100634.69;;;17.28;100.00
38022;BME280;23832;43.216;27.946;2023-04-16T00:18:23;100639.38;;;17.01;100.00
38022;BME280;23832;43.216;27.946;2023-04-16T00:20:27;100645.22;;;17.41;100.00
38022;BME280;23832;43.216;27.946;2023-04-16T00:22:28;100628.59;;;17.21;100.00
38022;BME280;23832;43.216;27.946;2023-04-16T00:24:31;100630.66;;;17.19;100.00
38022;BME280;23832;43.216;27.946;2023-04-16T00:26:32;100633.53;;;17.17;100.00
38022;BME280;23832;43.216;27.946;2023-04-16T00:28:35;100642.44;;;17.29;100.00
38022;BME280;23832;43.216;27.946;2023-04-16T00:30:37;100633.72;;;17.16;100.00
38022;BME280;23832;43.216;27.946;2023-04-16T00:32:39;100636.69;;;17.33;100.00
38022;BME280;23832;43.216;27.946;2023-04-16T00:34:41;100623.59;;;17.56;100.00
38022;BME280;23832;43.216;27.946;2023-04-16T00:36:44;100629.72;;;17.31;100.00
38022;BME280;23832;43.216;27.946;2023-04-16T00:38:46;100623.72;;;17.11;100.00
38022;BME280;23832;43.216;27.946;2023-04-16T00:40:48;100623.56;;;17.31;100.00
38022;BME280;23832;43.216;27.946;2023-04-16T00:42:50;100631.22;;;17.52;100.00
38022;BME280;23832;43.216;27.946;2023-04-16T00:44:52;100616.69;;;17.73;100.00
38022;BME280;23832;43.216;27.946;2023-04-16T00:46:54;100620.78;;;17.69;100.00
38022;BME280;23832;43.216;27.946;2023-04-16T00:48:56;100620.38;;;17.72;100.00
38022;BME280;23832;43.216;27.946;2023-04-16T00:50:58;100634.88;;;17.51;100.00
38022;BME280;23832;43.216;27.946;2023-04-16T00:53:02;100628.09;;;17.55;100.00
38022;BME280;23832;43.216;27.946;2023-04-16T00:55:04;100623.91;;;17.41;100.00
38022;BME280;23832;43.216;27.946;2023-04-16T00:57:07;100623.81;;;17.54;100.00
38022;BME280;23832;43.216;27.946;2023-04-16T00:59:09;100624.84;;;17.53;100.00
38022;BME280;23832;43.216;27.946;2023-04-16T01:01:12;100615.28;;;17.71;100.00
38022;BME280;23832;43.216;27.946;2023-04-16T01:03:14;100617.06;;;17.95;100.00
38022;BME280;23832;43.216;27.946;2023-04-16T01:05:16;100615.31;;;17.89;100.00
38022;BME280;23832;43.216;27.946;2023-04-16T01:07:18;100610.63;;;17.84;100.00
38022;BME280;23832;43.216;27.946;2023-04-16T01:09:21;100603.34;;;17.73;100.00
38022;BME280;23832;43.216;27.946;2023-04-16T01:11:23;100607.88;;;17.91;100.00
38022;BME280;23832;43.216;27.946;2023-04-16T01:13:25;100602.69;;;17.96;100.00
38022;BME280;23832;43.216;27.946;2023-04-16T01:15:27;100604.41;;;17.72;100.00
38022;BME280;23832;43.216;27.946;2023-04-16T01:17:29;100605.22;;;17.66;100.00
38022;BME280;23832;43.216;27.946;2023-04-16T01:19:32;100608.00;;;17.78;100.00
38022;BME280;23832;43.216;27.946;2023-04-16T01:21:37;100597.44;;;17.71;100.00
38022;BME280;23832;43.216;27.946;2023-04-16T01:23:39;100599.31;;;17.89;100.00
38022;BME280;23832;43.216;27.946;2023-04-16T01:25:41;100498.81;;;17.28;100.00
38022;BME280;23832;43.216;27.946;2023-04-16T01:27:43;100590.06;;;17.67;100.00
38022;BME280;23832;43.216;27.946;2023-04-16T01:29:45;100590.03;;;17.73;100.00
38022;BME280;23832;43.216;27.946;2023-04-16T01:31:47;100588.75;;;17.51;100.00
38022;BME280;23832;43.216;27.946;2023-04-16T01:33:49;100595.72;;;17.77;100.00
38022;BME280;23832;43.216;27.946;2023-04-16T01:35:51;100587.38;;;17.67;100.00
38022;BME280;23832;43.216;27.946;2023-04-16T01:37:55;100589.75;;;17.56;100.00
38022;BME280;23832;43.216;27.946;2023-04-16T01:39:57;100594.38;;;17.43;100.00
38022;BME280;23832;43.216;27.946;2023-04-16T01:41:59;100588.56;;;17.52;100.00
38022;BME280;23832;43.216;27.946;2023-04-16T01:44:01;100591.00;;;17.54;100.00
38022;BME280;23832;43.216;27.946;2023-04-16T01:46:13;100593.66;;;17.97;100.00
38022;BME280;23832;43.216;27.946;2023-04-16T01:48:15;100584.47;;;17.93;100.00
38022;BME280;23832;43.216;27.946;2023-04-16T01:50:19;100592.00;;;17.78;100.00
38022;BME280;23832;43.216;27.946;2023-04-16T01:52:21;100599.97;;;17.59;100.00
38022;BME280;23832;43.216;27.946;2023-04-16T01:54:24;100587.41;;;17.42;100.00
38022;BME280;23832;43.216;27.946;2023-04-16T01:56:26;100587.00;;;17.45;100.00
38022;BME280;23832;43.216;27.946;2023-04-16T01:58:28;100593.22;;;17.57;100.00
38022;BME280;23832;43.216;27.946;2023-04-16T02:00:31;100589.75;;;17.56;100.00
38022;BME280;23832;43.216;27.946;2023-04-16T02:02:33;100581.16;;;17.79;100.00
38022;BME280;23832;43.216;27.946;2023-04-16T02:04:36;100586.84;;;17.83;100.00
38022;BME280;23832;43.216;27.946;2023-04-16T02:06:38;100585.53;;;17.67;100.00
38022;BME280;23832;43.216;27.946;2023-04-16T02:08:40;100587.59;;;17.72;100.00
38022;BME280;23832;43.216;27.946;2023-04-16T02:10:45;100581.50;;;18.01;100.00
38022;BME280;23832;43.216;27.946;2023-04-16T02:12:47;100584.31;;;17.70;100.00
38022;BME280;23832;43.216;27.946;2023-04-16T02:14:50;100584.78;;;17.60;100.00
38022;BME280;23832;43.216;27.946;2023-04-16T02:16:52;100578.59;;;17.41;100.00
38022;BME280;23832;43.216;27.946;2023-04-16T02:18:53;100474.47;;;16.74;100.00
38022;BME280;23832;43.216;27.946;2023-04-16T02:20:56;100570.63;;;17.59;100.00
38022;BME280;23832;43.216;27.946;2023-04-16T02:22:59;100576.25;;;17.76;100.00
38022;BME280;23832;43.216;27.946;2023-04-16T02:25:01;100578.31;;;17.74;100.00
38022;BME280;23832;43.216;27.946;2023-04-16T02:27:04;100571.13;;;17.75;100.00
38022;BME280;23832;43.216;27.946;2023-04-16T02:29:06;100565.63;;;17.88;100.00
38022;BME280;23832;43.216;27.946;2023-04-16T02:31:08;100561.22;;;18.00;100.00
38022;BME280;23832;43.216;27.946;2023-04-16T02:33:10;100557.56;;;17.95;100.00
38022;BME280;23832;43.216;27.946;2023-04-16T02:35:13;100551.06;;;18.09;100.00
38022;BME280;23832;43.216;27.946;2023-04-16T02:37:15;100552.25;;;17.95;100.00
38022;BME280;23832;43.216;27.946;2023-04-16T02:39:17;100558.94;;;17.60;100.00
38022;BME280;23832;43.216;27.946;2023-04-16T02:41:19;100552.72;;;17.67;100.00
38022;BME280;23832;43.216;27.946;2023-04-16T02:43:22;100555.50;;;17.78;100.00
38022;BME280;23832;43.216;27.946;2023-04-16T02:45:24;100556.31;;;17.79;100.00
38022;BME280;23832;43.216;27.946;2023-04-16T02:47:26;100599.06;;;17.72;100.00
38022;BME280;23832;43.216;27.946;2023-04-16T02:49:28;100544.75;;;17.85;100.00
38022;BME280;23832;43.216;27.946;2023-04-16T02:51:30;100552.63;;;17.80;100.00
38022;BME280;23832;43.216;27.946;2023-04-16T02:53:32;100548.81;;;17.87;100.00
38022;BME280;23832;43.216;27.946;2023-04-16T02:55:34;100552.38;;;18.18;100.00
38022;BME280;23832;43.216;27.946;2023-04-16T02:57:36;100554.03;;;18.31;100.00
38022;BME280;23832;43.216;27.946;2023-04-16T02:59:40;100543.63;;;18.41;100.00
38022;BME280;23832;43.216;27.946;2023-04-16T03:01:42;100540.84;;;18.36;100.00
38022;BME280;23832;43.216;27.946;2023-04-16T03:03:44;100551.78;;;18.46;100.00
38022;BME280;23832;43.216;27.946;2023-04-16T03:05:46;100551.38;;;18.31;100.00
38022;BME280;23832;43.216;27.946;2023-04-16T03:07:48;100555.78;;;18.25;100.00
38022;BME280;23832;43.216;27.946;2023-04-16T03:09:55;100554.16;;;18.24;100.00
38022;BME280;23832;43.216;27.946;2023-04-16T03:11:57;100569.34;;;18.05;100.00
38022;BME280;23832;43.216;27.946;2023-04-16T03:14:00;100566.78;;;17.99;100.00
38022;BME280;23832;43.216;27.946;2023-04-16T03:16:05;100559.34;;;18.01;100.00
38022;BME280;23832;43.216;27.946;2023-04-16T03:18:07;100570.53;;;18.09;100.00
38022;BME280;23832;43.216;27.946;2023-04-16T03:20:09;100562.66;;;18.14;100.00
38022;BME280;23832;43.216;27.946;2023-04-16T03:22:11;100560.81;;;18.15;100.00
38022;BME280;23832;43.216;27.946;2023-04-16T03:24:13;100565.44;;;18.08;100.00
38022;BME280;23832;43.216;27.946;2023-04-16T03:26:15;100564.81;;;18.06;100.00
38022;BME280;23832;43.216;27.946;2023-04-16T03:28:17;100552.44;;;18.11;100.00
38022;BME280;23832;43.216;27.946;2023-04-16T03:30:19;100555.84;;;18.19;100.00
38022;BME280;23832;43.216;27.946;2023-04-16T03:32:22;100567.28;;;18.07;100.00
38022;BME280;23832;43.216;27.946;2023-04-16T03:34:24;100559.56;;;18.18;100.00
38022;BME280;23832;43.216;27.946;2023-04-16T03:36:27;100563.09;;;18.30;100.00
38022;BME280;23832;43.216;27.946;2023-04-16T03:38:29;100561.56;;;18.22;100.00
38022;BME280;23832;43.216;27.946;2023-04-16T03:40:31;100564.91;;;18.18;100.00
38022;BME280;23832;43.216;27.946;2023-04-16T03:42:33;100565.19;;;18.28;100.00
38022;BME280;23832;43.216;27.946;2023-04-16T03:44:34;100566.41;;;18.43;100.00
38022;BME280;23832;43.216;27.946;2023-04-16T03:46:37;100568.44;;;18.60;100.00
38022;BME280;23832;43.216;27.946;2023-04-16T03:48:40;100567.94;;;18.69;100.00
38022;BME280;23832;43.216;27.946;2023-04-16T03:50:44;100563.25;;;18.65;100.00
38022;BME280;23832;43.216;27.946;2023-04-16T03:52:46;100570.16;;;18.73;100.00
38022;BME280;23832;43.216;27.946;2023-04-16T03:54:48;100568.44;;;18.78;100.00
38022;BME280;23832;43.216;27.946;2023-04-16T03:56:50;100567.00;;;18.76;100.00
38022;BME280;23832;43.216;27.946;2023-04-16T03:58:52;100571.44;;;18.82;100.00
38022;BME280;23832;43.216;27.946;2023-04-16T04:00:54;100567.97;;;18.81;100.00
38022;BME280;23832;43.216;27.946;2023-04-16T04:02:56;100562.84;;;18.80;100.00
38022;BME280;23832;43.216;27.946;2023-04-16T04:05:00;100567.47;;;18.73;100.00
38022;BME280;23832;43.216;27.946;2023-04-16T04:07:02;100574.69;;;18.84;100.00
38022;BME280;23832;43.216;27.946;2023-04-16T04:09:04;100569.84;;;19.04;100.00
38022;BME280;23832;43.216;27.946;2023-04-16T04:11:06;100572.59;;;18.74;100.00
38022;BME280;23832;43.216;27.946;2023-04-16T04:13:08;100574.22;;;18.87;100.00
38022;BME280;23832;43.216;27.946;2023-04-16T04:15:10;100568.34;;;18.96;100.00
38022;BME280;23832;43.216;27.946;2023-04-16T04:17:12;100561.84;;;19.04;100.00
38022;BME280;23832;43.216;27.946;2023-04-16T04:19:14;100561.41;;;19.07;100.00
38022;BME280;23832;43.216;27.946;2023-04-16T04:21:18;100556.88;;;19.08;100.00
38022;BME280;23832;43.216;27.946;2023-04-16T04:23:20;100552.69;;;19.12;100.00
38022;BME280;23832;43.216;27.946;2023-04-16T04:25:22;100559.53;;;19.19;100.00
38022;BME280;23832;43.216;27.946;2023-04-16T04:27:25;100558.72;;;19.31;100.00
38022;BME280;23832;43.216;27.946;2023-04-16T04:29:27;100563.88;;;19.32;100.00
38022;BME280;23832;43.216;27.946;2023-04-16T04:31:29;100578.50;;;19.41;100.00
38022;BME280;23832;43.216;27.946;2023-04-16T04:33:31;100575.47;;;19.49;100.00
38022;BME280;23832;43.216;27.946;2023-04-16T04:35:34;100575.16;;;19.69;100.00
38022;BME280;23832;43.216;27.946;2023-04-16T04:37:37;100577.81;;;19.81;100.00
38022;BME280;23832;43.216;27.946;2023-04-16T04:39:39;100575.69;;;19.95;100.00
38022;BME280;23832;43.216;27.946;2023-04-16T04:41:41;100574.63;;;20.07;100.00
38022;BME280;23832;43.216;27.946;2023-04-16T04:43:42;100577.00;;;20.21;100.00
38022;BME280;23832;43.216;27.946;2023-04-16T04:45:44;100582.66;;;20.36;100.00
38022;BME280;23832;43.216;27.946;2023-04-16T04:47:48;100581.69;;;20.54;100.00
38022;BME280;23832;43.216;27.946;2023-04-16T04:49:50;100572.22;;;20.63;100.00
38022;BME280;23832;43.216;27.946;2023-04-16T04:51:52;100581.00;;;20.75;100.00
38022;BME280;23832;43.216;27.946;2023-04-16T04:53:56;100577.28;;;20.93;100.00
38022;BME280;23832;43.216;27.946;2023-04-16T04:55:58;100561.56;;;20.96;100.00
38022;BME280;23832;43.216;27.946;2023-04-16T04:58:01;100574.22;;;21.01;100.00
38022;BME280;23832;43.216;27.946;2023-04-16T05:00:03;100563.50;;;21.18;100.00
38022;BME280;23832;43.216;27.946;2023-04-16T05:02:05;100579.44;;;21.24;100.00
38022;BME280;23832;43.216;27.946;2023-04-16T05:04:07;100564.84;;;21.32;100.00
38022;BME280;23832;43.216;27.946;2023-04-16T05:06:09;100580.09;;;21.32;100.00
38022;BME280;23832;43.216;27.946;2023-04-16T05:08:11;100575.72;;;21.42;100.00
38022;BME280;23832;43.216;27.946;2023-04-16T05:10:15;100576.00;;;21.46;100.00
38022;BME280;23832;43.216;27.946;2023-04-16T05:12:17;100574.50;;;21.33;100.00
38022;BME280;23832;43.216;27.946;2023-04-16T05:14:19;100572.88;;;21.49;100.00
38022;BME280;23832;43.216;27.946;2023-04-16T05:16:23;100579.22;;;21.65;100.00
38022;BME280;23832;43.216;27.946;2023-04-16T05:18:25;100575.59;;;21.54;100.00
38022;BME280;23832;43.216;27.946;2023-04-16T05:20:27;100576.66;;;21.53;100.00
38022;BME280;23832;43.216;27.946;2023-04-16T05:22:29;100570.63;;;21.63;100.00
38022;BME280;23832;43.216;27.946;2023-04-16T05:24:31;100574.22;;;21.51;100.00
38022;BME280;23832;43.216;27.946;2023-04-16T05:26:34;100573.47;;;21.56;100.00
38022;BME280;23832;43.216;27.946;2023-04-16T05:28:36;100574.09;;;21.80;100.00
38022;BME280;23832;43.216;27.946;2023-04-16T05:30:38;100571.16;;;21.81;100.00
38022;BME280;23832;43.216;27.946;2023-04-16T05:32:40;100568.31;;;22.10;98.10
38022;BME280;23832;43.216;27.946;2023-04-16T05:34:42;100558.56;;;22.26;93.83
38022;BME280;23832;43.216;27.946;2023-04-16T05:36:44;100566.16;;;22.34;92.89
38022;BME280;23832;43.216;27.946;2023-04-16T05:38:46;100569.56;;;22.51;89.93
38022;BME280;23832;43.216;27.946;2023-04-16T05:40:48;100560.91;;;22.44;90.51
38022;BME280;23832;43.216;27.946;2023-04-16T05:42:52;100556.41;;;22.82;85.75
38022;BME280;23832;43.216;27.946;2023-04-16T05:44:53;100560.09;;;22.98;83.72
38022;BME280;23832;43.216;27.946;2023-04-16T05:46:55;100556.25;;;23.26;80.88
38022;BME280;23832;43.216;27.946;2023-04-16T05:48:58;100558.25;;;23.40;80.33
38022;BME280;23832;43.216;27.946;2023-04-16T05:51:00;100557.28;;;23.57;79.31
38022;BME280;23832;43.216;27.946;2023-04-16T05:53:05;100549.63;;;23.86;77.52
38022;BME280;23832;43.216;27.946;2023-04-16T05:55:07;100555.06;;;23.91;76.86
38022;BME280;23832;43.216;27.946;2023-04-16T05:57:09;100553.88;;;23.71;77.82
38022;BME280;23832;43.216;27.946;2023-04-16T05:59:12;100553.09;;;23.81;76.56
38022;BME280;23832;43.216;27.946;2023-04-16T06:01:14;100557.91;;;23.64;76.34
38022;BME280;23832;43.216;27.946;2023-04-16T06:03:16;100553.06;;;23.66;74.47
38022;BME280;23832;43.216;27.946;2023-04-16T06:05:18;100551.44;;;23.28;78.19
38022;BME280;23832;43.216;27.946;2023-04-16T06:07:20;100561.72;;;23.73;72.94
38022;BME280;23832;43.216;27.946;2023-04-16T06:09:22;100553.84;;;23.66;70.28
38022;BME280;23832;43.216;27.946;2023-04-16T06:11:24;100551.75;;;22.94;75.02
38022;BME280;23832;43.216;27.946;2023-04-16T06:13:26;100548.75;;;23.28;72.69
38022;BME280;23832;43.216;27.946;2023-04-16T06:15:30;100549.69;;;23.96;67.53
38022;BME280;23832;43.216;27.946;2023-04-16T06:17:32;100553.22;;;24.01;66.28
38022;BME280;23832;43.216;27.946;2023-04-16T06:19:34;100548.25;;;23.73;67.33
38022;BME280;23832;43.216;27.946;2023-04-16T06:21:36;100549.56;;;23.28;70.38
38022;BME280;23832;43.216;27.946;2023-04-16T06:23:38;100552.66;;;23.10;73.98
38022;BME280;23832;43.216;27.946;2023-04-16T06:25:40;100545.50;;;23.26;73.54
38022;BME280;23832;43.216;27.946;2023-04-16T06:27:42;100546.22;;;23.53;71.74
38022;BME280;23832;43.216;27.946;2023-04-16T06:29:44;100549.19;;;24.09;68.42
38022;BME280;23832;43.216;27.946;2023-04-16T06:31:48;100551.78;;;24.72;65.67
38022;BME280;23832;43.216;27.946;2023-04-16T06:33:50;100553.94;;;24.90;64.36
38022;BME280;23832;43.216;27.946;2023-04-16T06:35:51;100551.78;;;25.23;62.58
38022;BME280;23832;43.216;27.946;2023-04-16T06:37:53;100561.41;;;25.74;60.22
38022;BME280;23832;43.216;27.946;2023-04-16T06:39:55;100552.88;;;26.95;54.93
38022;BME280;23832;43.216;27.946;2023-04-16T06:41:57;100550.19;;;27.53;52.63
38022;BME280;23832;43.216;27.946;2023-04-16T06:44:00;100554.97;;;27.61;51.62
38022;BME280;23832;43.216;27.946;2023-04-16T06:46:02;100560.78;;;26.86;52.98
38022;BME280;23832;43.216;27.946;2023-04-16T06:48:06;100564.34;;;26.87;52.84
38022;BME280;23832;43.216;27.946;2023-04-16T06:50:08;100568.75;;;26.28;53.46
38022;BME280;23832;43.216;27.946;2023-04-16T06:52:10;100565.56;;;27.00;51.76
38022;BME280;23832;43.216;27.946;2023-04-16T06:54:12;100569.25;;;26.80;51.84
38022;BME280;23832;43.216;27.946;2023-04-16T06:56:14;100565.38;;;25.97;51.97
38022;BME280;23832;43.216;27.946;2023-04-16T06:58:16;100550.75;;;26.92;51.25
38022;BME280;23832;43.216;27.946;2023-04-16T07:00:18;100543.56;;;27.11;50.02
38022;BME280;23832;43.216;27.946;2023-04-16T07:02:21;100553.97;;;26.16;52.50
38022;BME280;23832;43.216;27.946;2023-04-16T07:04:24;100559.09;;;26.12;52.65
38022;BME280;23832;43.216;27.946;2023-04-16T07:06:26;100553.03;;;26.80;51.61
38022;BME280;23832;43.216;27.946;2023-04-16T07:08:27;100556.50;;;27.73;48.84
38022;BME280;23832;43.216;27.946;2023-04-16T07:10:29;100556.72;;;26.89;49.99
38022;BME280;23832;43.216;27.946;2023-04-16T07:12:31;100566.38;;;27.00;49.18
38022;BME280;23832;43.216;27.946;2023-04-16T07:14:34;100569.59;;;27.02;50.07
38022;BME280;23832;43.216;27.946;2023-04-16T07:16:36;100574.13;;;26.39;49.95
38022;BME280;23832;43.216;27.946;2023-04-16T07:18:41;100573.97;;;26.59;49.94
38022;BME280;23832;43.216;27.946;2023-04-16T07:20:45;100572.56;;;26.67;50.77
38022;BME280;23832;43.216;27.946;2023-04-16T07:22:46;100576.31;;;27.10;50.03
38022;BME280;23832;43.216;27.946;2023-04-16T07:24:48;100567.03;;;27.50;48.91
38022;BME280;23832;43.216;27.946;2023-04-16T07:26:50;100585.69;;;27.76;48.28
38022;BME280;23832;43.216;27.946;2023-04-16T07:28:52;100570.63;;;27.11;48.87
38022;BME280;23832;43.216;27.946;2023-04-16T07:30:54;100567.28;;;27.78;47.78
38022;BME280;23832;43.216;27.946;2023-04-16T07:32:56;100573.03;;;26.79;49.95
38022;BME280;23832;43.216;27.946;2023-04-16T07:34:58;100556.28;;;27.11;48.40
38022;BME280;23832;43.216;27.946;2023-04-16T07:37:01;100553.84;;;26.75;48.35
38022;BME280;23832;43.216;27.946;2023-04-16T07:39:04;100548.00;;;27.55;47.74
38022;BME280;23832;43.216;27.946;2023-04-16T07:41:06;100546.75;;;28.14;46.47
38022;BME280;23832;43.216;27.946;2023-04-16T07:43:07;100549.75;;;28.88;45.31
38022;BME280;23832;43.216;27.946;2023-04-16T07:45:10;100551.28;;;28.75;44.80
38022;BME280;23832;43.216;27.946;2023-04-16T07:47:12;100549.56;;;29.45;43.67
38022;BME280;23832;43.216;27.946;2023-04-16T07:49:14;100548.75;;;29.30;43.34
38022;BME280;23832;43.216;27.946;2023-04-16T07:51:15;100548.59;;;29.68;43.08
38022;BME280;23832;43.216;27.946;2023-04-16T07:53:19;100535.75;;;30.23;42.92
38022;BME280;23832;43.216;27.946;2023-04-16T07:55:21;100533.22;;;30.86;42.06
38022;BME280;23832;43.216;27.946;2023-04-16T07:57:23;100536.25;;;30.84;41.47
38022;BME280;23832;43.216;27.946;2023-04-16T07:59:25;100532.59;;;31.20;41.80
38022;BME280;23832;43.216;27.946;2023-04-16T08:01:27;100530.56;;;31.65;41.85
38022;BME280;23832;43.216;27.946;2023-04-16T08:03:29;100543.78;;;31.89;41.18
38022;BME280;23832;43.216;27.946;2023-04-16T08:05:31;100529.06;;;32.59;39.51
38022;BME280;23832;43.216;27.946;2023-04-16T08:07:33;100540.03;;;33.23;38.24
38022;BME280;23832;43.216;27.946;2023-04-16T08:09:45;100535.19;;;32.39;38.04
38022;BME280;23832;43.216;27.946;2023-04-16T08:11:47;100546.97;;;33.12;36.76
38022;BME280;23832;43.216;27.946;2023-04-16T08:13:50;100543.16;;;32.96;36.66
38022;BME280;23832;43.216;27.946;2023-04-16T08:15:52;100538.03;;;32.77;37.04
38022;BME280;23832;43.216;27.946;2023-04-16T08:17:53;100533.56;;;32.20;37.42
38022;BME280;23832;43.216;27.946;2023-04-16T08:19:55;100526.38;;;31.59;38.11
38022;BME280;23832;43.216;27.946;2023-04-16T08:21:57;100525.44;;;31.63;38.61
38022;BME280;23832;43.216;27.946;2023-04-16T08:24:00;100528.38;;;32.80;36.97
38022;BME280;23832;43.216;27.946;2023-04-16T08:26:03;100526.81;;;31.52;38.13
38022;BME280;23832;43.216;27.946;2023-04-16T08:28:05;100510.47;;;32.27;37.42
38022;BME280;23832;43.216;27.946;2023-04-16T08:30:07;100510.97;;;32.55;37.04
38022;BME280;23832;43.216;27.946;2023-04-16T08:32:09;100509.34;;;32.62;37.11
38022;BME280;23832;43.216;27.946;2023-04-16T08:34:11;100502.28;;;32.44;37.56
38022;BME280;23832;43.216;27.946;2023-04-16T08:36:13;100511.94;;;33.14;36.38
38022;BME280;23832;43.216;27.946;2023-04-16T08:38:15;100502.94;;;33.81;35.34
38022;BME280;23832;43.216;27.946;2023-04-16T08:40:17;100504.09;;;33.80;35.26
38022;BME280;23832;43.216;27.946;2023-04-16T08:42:22;100487.31;;;33.23;35.11
38022;BME280;23832;43.216;27.946;2023-04-16T08:44:26;100478.94;;;34.29;34.26
38022;BME280;23832;43.216;27.946;2023-04-16T08:46:28;100490.03;;;33.91;33.98
38022;BME280;23832;43.216;27.946;2023-04-16T08:48:32;100488.72;;;34.18;33.84
38022;BME280;23832;43.216;27.946;2023-04-16T08:50:34;100495.13;;;33.42;34.24
38022;BME280;23832;43.216;27.946;2023-04-16T08:52:36;100413.56;;;32.03;35.00
38022;BME280;23832;43.216;27.946;2023-04-16T08:54:45;100490.91;;;33.06;34.87
38022;BME280;23832;43.216;27.946;2023-04-16T08:56:48;100473.50;;;32.72;35.29
38022;BME280;23832;43.216;27.946;2023-04-16T08:58:53;100466.72;;;32.96;34.64
38022;BME280;23832;43.216;27.946;2023-04-16T09:00:55;100463.03;;;32.83;34.10
38022;BME280;23832;43.216;27.946;2023-04-16T09:02:57;100465.97;;;34.38;32.82
38022;BME280;23832;43.216;27.946;2023-04-16T09:04:59;100468.16;;;34.11;32.80
38022;BME280;23832;43.216;27.946;2023-04-16T09:07:01;100466.19;;;34.66;31.34
38022;BME280;23832;43.216;27.946;2023-04-16T09:09:05;100467.41;;;35.14;30.57
38022;BME280;23832;43.216;27.946;2023-04-16T09:11:07;100471.06;;;34.48;31.52
38022;BME280;23832;43.216;27.946;2023-04-16T09:13:09;100467.31;;;33.10;32.56
38022;BME280;23832;43.216;27.946;2023-04-16T09:15:14;100460.56;;;32.00;33.69
38022;BME280;23832;43.216;27.946;2023-04-16T09:17:16;100464.63;;;31.37;34.69
38022;BME280;23832;43.216;27.946;2023-04-16T09:19:18;100472.09;;;30.92;36.28
38022;BME280;23832;43.216;27.946;2023-04-16T09:21:20;100482.53;;;31.95;35.44
38022;BME280;23832;43.216;27.946;2023-04-16T09:23:23;100472.09;;;32.58;34.84
38022;BME280;23832;43.216;27.946;2023-04-16T09:25:25;100466.09;;;32.82;34.66
38022;BME280;23832;43.216;27.946;2023-04-16T09:27:27;100473.03;;;33.55;33.41
38022;BME280;23832;43.216;27.946;2023-04-16T09:29:33;100462.00;;;31.98;34.35
38022;BME280;23832;43.216;27.946;2023-04-16T09:31:38;100456.19;;;33.15;33.38
38022;BME280;23832;43.216;27.946;2023-04-16T09:33:40;100463.25;;;33.54;32.27
38022;BME280;23832;43.216;27.946;2023-04-16T09:35:45;100449.81;;;32.12;34.24
38022;BME280;23832;43.216;27.946;2023-04-16T09:37:53;100453.34;;;30.90;35.87
38022;BME280;23832;43.216;27.946;2023-04-16T09:39:56;100447.44;;;31.28;35.33
38022;BME280;23832;43.216;27.946;2023-04-16T09:41:58;100443.03;;;31.67;34.76
38022;BME280;23832;43.216;27.946;2023-04-16T09:44:01;100443.28;;;32.95;33.31
38022;BME280;23832;43.216;27.946;2023-04-16T09:46:03;100448.44;;;31.49;34.62
38022;BME280;23832;43.216;27.946;2023-04-16T09:48:07;100437.81;;;31.22;34.77
38022;BME280;23832;43.216;27.946;2023-04-16T09:50:13;100438.69;;;31.48;34.56
38022;BME280;23832;43.216;27.946;2023-04-16T09:52:16;100449.13;;;32.67;33.54
38022;BME280;23832;43.216;27.946;2023-04-16T09:54:18;100447.69;;;30.33;36.07
38022;BME280;23832;43.216;27.946;2023-04-16T09:56:22;100446.31;;;30.44;36.17
38022;BME280;23832;43.216;27.946;2023-04-16T09:58:25;100432.50;;;30.63;36.14
38022;BME280;23832;43.216;27.946;2023-04-16T10:00:28;100450.78;;;30.40;35.92
38022;BME280;23832;43.216;27.946;2023-04-16T10:02:30;100448.41;;;29.25;37.34
38022;BME280;23832;43.216;27.946;2023-04-16T10:04:45;100440.69;;;28.40;38.90
38022;BME280;23832;43.216;27.946;2023-04-16T10:07:01;100455.22;;;29.09;38.31
38022;BME280;23832;43.216;27.946;2023-04-16T10:09:05;100444.47;;;29.45;37.46
38022;BME280;23832;43.216;27.946;2023-04-16T10:11:07;100447.38;;;29.76;37.25
38022;BME280;23832;43.216;27.946;2023-04-16T10:13:09;100452.63;;;30.76;35.99
38022;BME280;23832;43.216;27.946;2023-04-16T10:15:16;100458.25;;;29.21;38.22
38022;BME280;23832;43.216;27.946;2023-04-16T10:17:19;100463.56;;;27.53;40.08
38022;BME280;23832;43.216;27.946;2023-04-16T10:19:23;100470.19;;;27.85;40.12
38022;BME280;23832;43.216;27.946;2023-04-16T10:21:27;100464.50;;;28.43;39.51
38022;BME280;23832;43.216;27.946;2023-04-16T10:23:33;100475.44;;;28.70;38.86
38022;BME280;23832;43.216;27.946;2023-04-16T10:25:34;100477.94;;;29.27;38.12
38022;BME280;23832;43.216;27.946;2023-04-16T10:27:36;100476.50;;;27.99;40.17